Winnipegosis, Canada
Current Conditions -  °F | °C
As of 6:00 AM on Thursday 23 Oct 2014 (Local Time) from CYDN Reporting Station
Overcast Overcast  
Wind Chill: 52°   Ceiling: 1500
Heat Index: 52°   Visibility: 9mi
Dew Point: 46°   Wind: 12mph
Humidity: 82%   Direction: 280°W
Pressure: 29.71"   Gusts: 20mph
Location:  51.65°N, 99.92°W
Report Text: CYDN 231100Z AUTO 28010G17KT 9SM OVC015 11/08 A2971 RMK SLP064 DENSITY ALT 1000FT
Loading
Personal Weather Stations






























Interactive Weather Map
Tropical Storm Tracking
New forecast layout! Learn more

10-Day Weather Forecast

Advertisements
Track Severe Weather on mobile